sensor_id;sensor_type;location;lat;lon;timestamp;P1;durP1;ratioP1;P2;durP2;ratioP2
74532;SDS011;63012;51.096;-115.366;2022-09-21T00:01:22;4.40;;;0.90;;
74532;SDS011;63012;51.096;-115.366;2022-09-21T00:03:56;3.30;;;0.80;;
74532;SDS011;63012;51.096;-115.366;2022-09-21T00:06:27;3.00;;;0.70;;
74532;SDS011;63012;51.096;-115.366;2022-09-21T00:08:56;3.70;;;0.70;;
74532;SDS011;63012;51.096;-115.366;2022-09-21T00:11:25;3.20;;;1.00;;
74532;SDS011;63012;51.096;-115.366;2022-09-21T00:13:56;2.10;;;0.50;;
74532;SDS011;63012;51.096;-115.366;2022-09-21T00:16:26;4.20;;;0.90;;
74532;SDS011;63012;51.096;-115.366;2022-09-21T00:18:54;3.40;;;0.70;;
74532;SDS011;63012;51.096;-115.366;2022-09-21T00:21:21;2.70;;;0.70;;
74532;SDS011;63012;51.096;-115.366;2022-09-21T00:23:48;3.60;;;0.90;;
74532;SDS011;63012;51.096;-115.366;2022-09-21T00:26:20;3.20;;;0.90;;
74532;SDS011;63012;51.096;-115.366;2022-09-21T00:28:58;3.00;;;0.80;;
74532;SDS011;63012;51.096;-115.366;2022-09-21T00:31:28;2.70;;;0.60;;
74532;SDS011;63012;51.096;-115.366;2022-09-21T00:33:57;3.10;;;0.70;;
74532;SDS011;63012;51.096;-115.366;2022-09-21T00:36:25;4.50;;;0.80;;
74532;SDS011;63012;51.096;-115.366;2022-09-21T00:38:55;2.60;;;0.60;;
74532;SDS011;63012;51.096;-115.366;2022-09-21T00:41:25;3.00;;;0.70;;
74532;SDS011;63012;51.096;-115.366;2022-09-21T00:46:52;3.50;;;0.60;;
74532;SDS011;63012;51.096;-115.366;2022-09-21T00:49:22;4.80;;;1.10;;
74532;SDS011;63012;51.096;-115.366;2022-09-21T00:51:52;3.50;;;0.90;;
74532;SDS011;63012;51.096;-115.366;2022-09-21T00:54:27;3.00;;;0.70;;
74532;SDS011;63012;51.096;-115.366;2022-09-21T00:56:59;4.00;;;0.70;;
74532;SDS011;63012;51.096;-115.366;2022-09-21T00:59:29;3.80;;;1.00;;
74532;SDS011;63012;51.096;-115.366;2022-09-21T01:01:59;4.60;;;1.30;;
74532;SDS011;63012;51.096;-115.366;2022-09-21T01:04:27;4.70;;;1.20;;
74532;SDS011;63012;51.096;-115.366;2022-09-21T01:06:56;3.90;;;0.70;;
74532;SDS011;63012;51.096;-115.366;2022-09-21T01:09:27;3.50;;;0.80;;
74532;SDS011;63012;51.096;-115.366;2022-09-21T01:18:17;3.20;;;0.90;;
74532;SDS011;63012;51.096;-115.366;2022-09-21T01:29:57;2.70;;;0.70;;
74532;SDS011;63012;51.096;-115.366;2022-09-21T01:36:04;3.20;;;0.80;;
74532;SDS011;63012;51.096;-115.366;2022-09-21T01:38:52;3.20;;;0.90;;
74532;SDS011;63012;51.096;-115.366;2022-09-21T01:41:26;3.40;;;0.80;;
74532;SDS011;63012;51.096;-115.366;2022-09-21T01:43:58;3.70;;;1.00;;
74532;SDS011;63012;51.096;-115.366;2022-09-21T01:46:33;3.20;;;0.90;;
74532;SDS011;63012;51.096;-115.366;2022-09-21T01:49:12;4.00;;;1.20;;
74532;SDS011;63012;51.096;-115.366;2022-09-21T01:51:54;4.80;;;1.20;;
74532;SDS011;63012;51.096;-115.366;2022-09-21T01:54:36;3.70;;;0.80;;
74532;SDS011;63012;51.096;-115.366;2022-09-21T01:59:56;4.30;;;1.20;;
74532;SDS011;63012;51.096;-115.366;2022-09-21T02:02:32;3.80;;;0.90;;
74532;SDS011;63012;51.096;-115.366;2022-09-21T02:05:02;3.70;;;1.10;;
74532;SDS011;63012;51.096;-115.366;2022-09-21T02:07:34;3.20;;;0.80;;
74532;SDS011;63012;51.096;-115.366;2022-09-21T02:10:07;3.90;;;1.10;;
74532;SDS011;63012;51.096;-115.366;2022-09-21T02:12:39;3.40;;;0.90;;
74532;SDS011;63012;51.096;-115.366;2022-09-21T02:15:06;3.00;;;0.70;;
74532;SDS011;63012;51.096;-115.366;2022-09-21T02:17:55;3.40;;;0.80;;
74532;SDS011;63012;51.096;-115.366;2022-09-21T02:20:52;6.10;;;1.20;;
74532;SDS011;63012;51.096;-115.366;2022-09-21T02:23:36;3.90;;;1.20;;
74532;SDS011;63012;51.096;-115.366;2022-09-21T02:26:19;6.00;;;2.00;;
74532;SDS011;63012;51.096;-115.366;2022-09-21T02:29:09;6.40;;;2.20;;
74532;SDS011;63012;51.096;-115.366;2022-09-21T02:32:10;4.70;;;1.30;;
74532;SDS011;63012;51.096;-115.366;2022-09-21T02:34:46;4.70;;;1.40;;
74532;SDS011;63012;51.096;-115.366;2022-09-21T02:37:44;5.20;;;1.20;;
74532;SDS011;63012;51.096;-115.366;2022-09-21T02:40:42;5.20;;;1.50;;
74532;SDS011;63012;51.096;-115.366;2022-09-21T02:43:26;5.10;;;1.10;;
74532;SDS011;63012;51.096;-115.366;2022-09-21T02:46:03;4.60;;;1.40;;
74532;SDS011;63012;51.096;-115.366;2022-09-21T02:48:50;5.20;;;1.60;;
74532;SDS011;63012;51.096;-115.366;2022-09-21T02:51:32;5.80;;;1.50;;
74532;SDS011;63012;51.096;-115.366;2022-09-21T02:54:16;5.50;;;1.50;;
74532;SDS011;63012;51.096;-115.366;2022-09-21T02:56:51;9.50;;;3.00;;
74532;SDS011;63012;51.096;-115.366;2022-09-21T02:59:20;11.50;;;4.60;;
74532;SDS011;63012;51.096;-115.366;2022-09-21T03:01:51;9.20;;;3.80;;
74532;SDS011;63012;51.096;-115.366;2022-09-21T03:04:18;4.80;;;1.20;;
74532;SDS011;63012;51.096;-115.366;2022-09-21T03:06:46;6.50;;;2.00;;
74532;SDS011;63012;51.096;-115.366;2022-09-21T03:09:13;5.00;;;1.30;;
74532;SDS011;63012;51.096;-115.366;2022-09-21T03:11:40;6.10;;;2.00;;
74532;SDS011;63012;51.096;-115.366;2022-09-21T03:14:09;8.00;;;2.80;;
74532;SDS011;63012;51.096;-115.366;2022-09-21T03:16:37;7.80;;;3.40;;
74532;SDS011;63012;51.096;-115.366;2022-09-21T03:19:05;9.80;;;3.10;;
74532;SDS011;63012;51.096;-115.366;2022-09-21T03:21:31;4.00;;;1.30;;
74532;SDS011;63012;51.096;-115.366;2022-09-21T03:23:58;7.10;;;1.50;;
74532;SDS011;63012;51.096;-115.366;2022-09-21T03:26:25;4.90;;;1.40;;
74532;SDS011;63012;51.096;-115.366;2022-09-21T03:28:52;6.00;;;2.00;;
74532;SDS011;63012;51.096;-115.366;2022-09-21T03:31:19;7.30;;;2.50;;
74532;SDS011;63012;51.096;-115.366;2022-09-21T03:33:47;4.10;;;1.30;;
74532;SDS011;63012;51.096;-115.366;2022-09-21T03:36:14;4.00;;;1.10;;
74532;SDS011;63012;51.096;-115.366;2022-09-21T03:38:42;5.10;;;1.30;;
74532;SDS011;63012;51.096;-115.366;2022-09-21T03:41:09;6.80;;;2.60;;
74532;SDS011;63012;51.096;-115.366;2022-09-21T03:43:36;6.50;;;2.60;;
74532;SDS011;63012;51.096;-115.366;2022-09-21T03:46:03;6.60;;;2.70;;
74532;SDS011;63012;51.096;-115.366;2022-09-21T03:48:30;6.70;;;2.40;;
74532;SDS011;63012;51.096;-115.366;2022-09-21T03:50:57;6.30;;;2.60;;
74532;SDS011;63012;51.096;-115.366;2022-09-21T03:53:24;6.60;;;2.80;;
74532;SDS011;63012;51.096;-115.366;2022-09-21T03:55:51;6.30;;;1.70;;
74532;SDS011;63012;51.096;-115.366;2022-09-21T03:58:18;5.20;;;1.20;;
74532;SDS011;63012;51.096;-115.366;2022-09-21T04:00:47;4.70;;;1.50;;
74532;SDS011;63012;51.096;-115.366;2022-09-21T04:03:14;6.90;;;1.40;;
74532;SDS011;63012;51.096;-115.366;2022-09-21T04:05:41;5.50;;;1.50;;
74532;SDS011;63012;51.096;-115.366;2022-09-21T04:08:08;6.90;;;1.30;;
74532;SDS011;63012;51.096;-115.366;2022-09-21T04:10:34;3.90;;;1.10;;
74532;SDS011;63012;51.096;-115.366;2022-09-21T04:13:02;5.00;;;1.50;;
74532;SDS011;63012;51.096;-115.366;2022-09-21T04:15:29;6.60;;;1.20;;
74532;SDS011;63012;51.096;-115.366;2022-09-21T04:17:56;4.10;;;1.20;;
74532;SDS011;63012;51.096;-115.366;2022-09-21T04:20:24;4.70;;;1.50;;
74532;SDS011;63012;51.096;-115.366;2022-09-21T04:22:51;5.00;;;1.00;;
74532;SDS011;63012;51.096;-115.366;2022-09-21T04:25:18;3.70;;;1.00;;
74532;SDS011;63012;51.096;-115.366;2022-09-21T04:27:45;5.70;;;1.20;;
74532;SDS011;63012;51.096;-115.366;2022-09-21T04:30:14;5.20;;;1.40;;
74532;SDS011;63012;51.096;-115.366;2022-09-21T04:32:42;4.30;;;1.20;;
74532;SDS011;63012;51.096;-115.366;2022-09-21T04:35:09;5.00;;;1.20;;
74532;SDS011;63012;51.096;-115.366;2022-09-21T04:37:36;6.00;;;1.80;;
74532;SDS011;63012;51.096;-115.366;2022-09-21T04:40:04;4.60;;;1.10;;
74532;SDS011;63012;51.096;-115.366;2022-09-21T04:42:32;4.70;;;1.20;;
74532;SDS011;63012;51.096;-115.366;2022-09-21T04:44:59;3.30;;;1.10;;
74532;SDS011;63012;51.096;-115.366;2022-09-21T04:47:29;5.80;;;1.30;;
74532;SDS011;63012;51.096;-115.366;2022-09-21T04:49:56;4.70;;;1.10;;
74532;SDS011;63012;51.096;-115.366;2022-09-21T04:52:23;4.70;;;1.30;;
74532;SDS011;63012;51.096;-115.366;2022-09-21T04:54:50;5.80;;;1.50;;
74532;SDS011;63012;51.096;-115.366;2022-09-21T04:57:18;4.40;;;1.50;;
74532;SDS011;63012;51.096;-115.366;2022-09-21T04:59:44;5.40;;;1.50;;
74532;SDS011;63012;51.096;-115.366;2022-09-21T05:02:11;4.90;;;1.10;;
74532;SDS011;63012;51.096;-115.366;2022-09-21T05:04:38;4.50;;;1.20;;
74532;SDS011;63012;51.096;-115.366;2022-09-21T05:07:05;4.30;;;1.20;;
74532;SDS011;63012;51.096;-115.366;2022-09-21T05:09:33;7.10;;;1.30;;
74532;SDS011;63012;51.096;-115.366;2022-09-21T05:12:18;5.60;;;1.60;;
74532;SDS011;63012;51.096;-115.366;2022-09-21T05:14:45;4.60;;;1.20;;
74532;SDS011;63012;51.096;-115.366;2022-09-21T05:17:12;7.10;;;1.60;;
74532;SDS011;63012;51.096;-115.366;2022-09-21T05:19:39;4.60;;;1.00;;
74532;SDS011;63012;51.096;-115.366;2022-09-21T05:22:07;4.70;;;1.30;;
74532;SDS011;63012;51.096;-115.366;2022-09-21T05:24:34;5.30;;;1.40;;
74532;SDS011;63012;51.096;-115.366;2022-09-21T05:27:02;4.30;;;1.20;;
74532;SDS011;63012;51.096;-115.366;2022-09-21T05:29:29;4.70;;;1.30;;
74532;SDS011;63012;51.096;-115.366;2022-09-21T05:32:00;4.20;;;1.10;;
74532;SDS011;63012;51.096;-115.366;2022-09-21T05:34:47;4.60;;;1.00;;
74532;SDS011;63012;51.096;-115.366;2022-09-21T05:37:51;5.70;;;1.50;;
74532;SDS011;63012;51.096;-115.366;2022-09-21T05:40:22;4.40;;;1.40;;
74532;SDS011;63012;51.096;-115.366;2022-09-21T05:42:50;4.50;;;1.10;;
74532;SDS011;63012;51.096;-115.366;2022-09-21T05:45:18;3.80;;;0.90;;
74532;SDS011;63012;51.096;-115.366;2022-09-21T05:48:12;4.80;;;1.00;;
74532;SDS011;63012;51.096;-115.366;2022-09-21T05:51:00;4.20;;;0.90;;
74532;SDS011;63012;51.096;-115.366;2022-09-21T06:05:47;4.60;;;1.40;;
74532;SDS011;63012;51.096;-115.366;2022-09-21T06:08:14;4.20;;;1.10;;
74532;SDS011;63012;51.096;-115.366;2022-09-21T06:10:41;4.40;;;1.10;;
74532;SDS011;63012;51.096;-115.366;2022-09-21T06:13:08;3.60;;;0.80;;
74532;SDS011;63012;51.096;-115.366;2022-09-21T06:15:36;5.00;;;1.30;;
74532;SDS011;63012;51.096;-115.366;2022-09-21T06:18:07;4.80;;;1.30;;
74532;SDS011;63012;51.096;-115.366;2022-09-21T06:20:35;4.30;;;1.00;;
74532;SDS011;63012;51.096;-115.366;2022-09-21T06:23:04;5.30;;;1.40;;
74532;SDS011;63012;51.096;-115.366;2022-09-21T06:25:33;5.40;;;1.00;;
74532;SDS011;63012;51.096;-115.366;2022-09-21T06:28:08;3.90;;;1.00;;
74532;SDS011;63012;51.096;-115.366;2022-09-21T06:30:39;4.70;;;1.20;;
74532;SDS011;63012;51.096;-115.366;2022-09-21T06:33:07;4.90;;;1.40;;
74532;SDS011;63012;51.096;-115.366;2022-09-21T06:35:35;4.80;;;1.60;;
74532;SDS011;63012;51.096;-115.366;2022-09-21T06:38:05;4.60;;;1.20;;
74532;SDS011;63012;51.096;-115.366;2022-09-21T06:40:34;6.60;;;1.60;;
74532;SDS011;63012;51.096;-115.366;2022-09-21T06:43:03;4.40;;;1.10;;
74532;SDS011;63012;51.096;-115.366;2022-09-21T06:45:31;4.70;;;1.50;;
74532;SDS011;63012;51.096;-115.366;2022-09-21T06:47:58;5.90;;;1.40;;
74532;SDS011;63012;51.096;-115.366;2022-09-21T06:50:25;4.70;;;1.40;;
74532;SDS011;63012;51.096;-115.366;2022-09-21T06:52:53;5.10;;;1.20;;
74532;SDS011;63012;51.096;-115.366;2022-09-21T06:55:20;4.30;;;1.30;;
74532;SDS011;63012;51.096;-115.366;2022-09-21T06:57:47;3.90;;;1.30;;
74532;SDS011;63012;51.096;-115.366;2022-09-21T07:00:15;4.60;;;1.20;;
74532;SDS011;63012;51.096;-115.366;2022-09-21T07:02:43;5.10;;;1.60;;
74532;SDS011;63012;51.096;-115.366;2022-09-21T07:05:11;5.20;;;1.50;;
74532;SDS011;63012;51.096;-115.366;2022-09-21T07:07:38;6.10;;;1.50;;
74532;SDS011;63012;51.096;-115.366;2022-09-21T07:10:06;4.90;;;1.40;;
74532;SDS011;63012;51.096;-115.366;2022-09-21T07:12:34;6.50;;;2.20;;
74532;SDS011;63012;51.096;-115.366;2022-09-21T07:15:02;5.30;;;1.50;;
74532;SDS011;63012;51.096;-115.366;2022-09-21T07:17:35;4.40;;;1.30;;
74532;SDS011;63012;51.096;-115.366;2022-09-21T07:20:04;6.00;;;1.50;;
74532;SDS011;63012;51.096;-115.366;2022-09-21T07:22:33;4.30;;;1.30;;
74532;SDS011;63012;51.096;-115.366;2022-09-21T07:25:01;4.50;;;1.20;;
74532;SDS011;63012;51.096;-115.366;2022-09-21T07:27:31;4.60;;;1.40;;
74532;SDS011;63012;51.096;-115.366;2022-09-21T07:29:58;4.90;;;1.30;;
74532;SDS011;63012;51.096;-115.366;2022-09-21T07:32:25;5.10;;;1.60;;
74532;SDS011;63012;51.096;-115.366;2022-09-21T07:34:52;5.20;;;1.30;;
74532;SDS011;63012;51.096;-115.366;2022-09-21T07:37:21;5.40;;;1.70;;
74532;SDS011;63012;51.096;-115.366;2022-09-21T07:39:50;4.80;;;1.60;;
74532;SDS011;63012;51.096;-115.366;2022-09-21T07:42:19;3.60;;;1.10;;
74532;SDS011;63012;51.096;-115.366;2022-09-21T07:44:47;4.90;;;1.60;;
74532;SDS011;63012;51.096;-115.366;2022-09-21T07:47:15;5.00;;;1.60;;
74532;SDS011;63012;51.096;-115.366;2022-09-21T07:49:42;4.20;;;1.20;;
74532;SDS011;63012;51.096;-115.366;2022-09-21T07:52:09;5.00;;;1.50;;
74532;SDS011;63012;51.096;-115.366;2022-09-21T07:54:36;4.60;;;1.50;;
74532;SDS011;63012;51.096;-115.366;2022-09-21T07:57:03;4.30;;;1.30;;
74532;SDS011;63012;51.096;-115.366;2022-09-21T07:59:49;5.90;;;1.70;;
74532;SDS011;63012;51.096;-115.366;2022-09-21T08:02:16;4.80;;;1.30;;
74532;SDS011;63012;51.096;-115.366;2022-09-21T08:04:43;4.40;;;1.50;;
74532;SDS011;63012;51.096;-115.366;2022-09-21T08:07:10;3.70;;;0.90;;
74532;SDS011;63012;51.096;-115.366;2022-09-21T08:09:38;5.00;;;1.20;;
74532;SDS011;63012;51.096;-115.366;2022-09-21T08:12:05;4.50;;;1.30;;
74532;SDS011;63012;51.096;-115.366;2022-09-21T08:14:34;4.70;;;1.30;;
74532;SDS011;63012;51.096;-115.366;2022-09-21T08:17:01;4.30;;;1.40;;
74532;SDS011;63012;51.096;-115.366;2022-09-21T08:19:27;5.50;;;1.30;;
74532;SDS011;63012;51.096;-115.366;2022-09-21T08:21:55;4.20;;;1.40;;
74532;SDS011;63012;51.096;-115.366;2022-09-21T08:24:21;5.10;;;1.30;;
74532;SDS011;63012;51.096;-115.366;2022-09-21T08:26:50;4.30;;;1.20;;
74532;SDS011;63012;51.096;-115.366;2022-09-21T08:29:17;3.70;;;1.20;;
74532;SDS011;63012;51.096;-115.366;2022-09-21T08:31:44;4.80;;;1.00;;
74532;SDS011;63012;51.096;-115.366;2022-09-21T08:34:12;4.70;;;1.30;;
74532;SDS011;63012;51.096;-115.366;2022-09-21T08:36:39;5.30;;;1.10;;
74532;SDS011;63012;51.096;-115.366;2022-09-21T08:39:07;4.80;;;1.60;;
74532;SDS011;63012;51.096;-115.366;2022-09-21T08:41:50;4.90;;;1.20;;
74532;SDS011;63012;51.096;-115.366;2022-09-21T08:45:00;4.70;;;1.40;;
74532;SDS011;63012;51.096;-115.366;2022-09-21T08:47:38;4.00;;;1.30;;
74532;SDS011;63012;51.096;-115.366;2022-09-21T08:50:34;5.40;;;1.70;;
74532;SDS011;63012;51.096;-115.366;2022-09-21T08:53:14;4.20;;;1.30;;
74532;SDS011;63012;51.096;-115.366;2022-09-21T08:56:13;4.90;;;1.70;;
74532;SDS011;63012;51.096;-115.366;2022-09-21T08:58:41;6.60;;;1.60;;
74532;SDS011;63012;51.096;-115.366;2022-09-21T09:01:38;4.30;;;1.40;;
74532;SDS011;63012;51.096;-115.366;2022-09-21T09:07:41;4.70;;;1.40;;
74532;SDS011;63012;51.096;-115.366;2022-09-21T09:23:11;4.20;;;1.50;;
74532;SDS011;63012;51.096;-115.366;2022-09-21T09:26:06;4.50;;;1.30;;
74532;SDS011;63012;51.096;-115.366;2022-09-21T09:28:59;4.70;;;1.40;;
74532;SDS011;63012;51.096;-115.366;2022-09-21T09:31:48;4.70;;;1.20;;
74532;SDS011;63012;51.096;-115.366;2022-09-21T09:34:34;4.30;;;1.30;;
74532;SDS011;63012;51.096;-115.366;2022-09-21T09:37:16;4.30;;;1.30;;
74532;SDS011;63012;51.096;-115.366;2022-09-21T09:39:48;5.90;;;1.40;;
74532;SDS011;63012;51.096;-115.366;2022-09-21T09:46:10;5.30;;;1.20;;
74532;SDS011;63012;51.096;-115.366;2022-09-21T09:49:29;5.70;;;1.10;;
74532;SDS011;63012;51.096;-115.366;2022-09-21T09:52:14;5.70;;;1.40;;
74532;SDS011;63012;51.096;-115.366;2022-09-21T09:54:42;5.60;;;1.00;;
74532;SDS011;63012;51.096;-115.366;2022-09-21T09:57:10;6.40;;;1.50;;
74532;SDS011;63012;51.096;-115.366;2022-09-21T09:59:44;5.60;;;1.50;;
74532;SDS011;63012;51.096;-115.366;2022-09-21T10:02:23;4.50;;;1.40;;
74532;SDS011;63012;51.096;-115.366;2022-09-21T10:05:02;5.80;;;1.40;;
74532;SDS011;63012;51.096;-115.366;2022-09-21T10:07:42;4.00;;;1.30;;
74532;SDS011;63012;51.096;-115.366;2022-09-21T10:10:39;5.30;;;1.40;;
74532;SDS011;63012;51.096;-115.366;2022-09-21T10:13:24;5.00;;;1.50;;
74532;SDS011;63012;51.096;-115.366;2022-09-21T10:15:57;7.10;;;1.20;;
74532;SDS011;63012;51.096;-115.366;2022-09-21T10:18:42;9.10;;;1.80;;
74532;SDS011;63012;51.096;-115.366;2022-09-21T10:21:43;5.70;;;1.70;;
74532;SDS011;63012;51.096;-115.366;2022-09-21T10:24:22;5.00;;;1.70;;
74532;SDS011;63012;51.096;-115.366;2022-09-21T10:27:03;4.00;;;1.10;;
74532;SDS011;63012;51.096;-115.366;2022-09-21T10:29:46;5.30;;;1.90;;
74532;SDS011;63012;51.096;-115.366;2022-09-21T10:37:37;4.60;;;1.10;;
74532;SDS011;63012;51.096;-115.366;2022-09-21T10:40:23;3.90;;;1.20;;
74532;SDS011;63012;51.096;-115.366;2022-09-21T10:42:54;4.60;;;1.40;;
74532;SDS011;63012;51.096;-115.366;2022-09-21T10:45:29;4.70;;;1.40;;
74532;SDS011;63012;51.096;-115.366;2022-09-21T10:50:45;5.10;;;1.40;;
74532;SDS011;63012;51.096;-115.366;2022-09-21T10:56:03;4.80;;;1.50;;
74532;SDS011;63012;51.096;-115.366;2022-09-21T10:59:26;4.10;;;1.10;;
74532;SDS011;63012;51.096;-115.366;2022-09-21T11:01:57;4.10;;;1.10;;
74532;SDS011;63012;51.096;-115.366;2022-09-21T11:04:36;4.40;;;1.20;;
74532;SDS011;63012;51.096;-115.366;2022-09-21T11:07:18;5.20;;;1.00;;
74532;SDS011;63012;51.096;-115.366;2022-09-21T11:10:19;5.00;;;1.30;;
74532;SDS011;63012;51.096;-115.366;2022-09-21T11:16:42;4.00;;;1.20;;
74532;SDS011;63012;51.096;-115.366;2022-09-21T11:22:39;3.60;;;1.20;;
74532;SDS011;63012;51.096;-115.366;2022-09-21T11:25:25;5.80;;;1.20;;
74532;SDS011;63012;51.096;-115.366;2022-09-21T11:28:14;4.70;;;1.40;;
74532;SDS011;63012;51.096;-115.366;2022-09-21T11:36:39;5.20;;;1.10;;
74532;SDS011;63012;51.096;-115.366;2022-09-21T11:42:03;5.10;;;1.20;;
74532;SDS011;63012;51.096;-115.366;2022-09-21T11:45:00;4.60;;;1.30;;
74532;SDS011;63012;51.096;-115.366;2022-09-21T11:57:22;5.00;;;1.60;;
74532;SDS011;63012;51.096;-115.366;2022-09-21T12:00:15;5.90;;;1.50;;
74532;SDS011;63012;51.096;-115.366;2022-09-21T12:05:47;4.50;;;1.40;;
74532;SDS011;63012;51.096;-115.366;2022-09-21T12:11:42;5.10;;;1.30;;
74532;SDS011;63012;51.096;-115.366;2022-09-21T12:20:41;5.40;;;1.60;;
74532;SDS011;63012;51.096;-115.366;2022-09-21T12:23:28;5.50;;;1.60;;
74532;SDS011;63012;51.096;-115.366;2022-09-21T12:25:57;5.90;;;1.50;;
74532;SDS011;63012;51.096;-115.366;2022-09-21T12:28:41;4.50;;;1.70;;
74532;SDS011;63012;51.096;-115.366;2022-09-21T12:31:38;4.50;;;1.10;;
74532;SDS011;63012;51.096;-115.366;2022-09-21T12:34:30;4.30;;;1.50;;
74532;SDS011;63012;51.096;-115.366;2022-09-21T12:37:32;5.70;;;1.70;;
74532;SDS011;63012;51.096;-115.366;2022-09-21T12:40:26;4.50;;;1.10;;
74532;SDS011;63012;51.096;-115.366;2022-09-21T12:50:10;5.00;;;1.30;;
74532;SDS011;63012;51.096;-115.366;2022-09-21T14:34:54;5.20;;;1.90;;
74532;SDS011;63012;51.096;-115.366;2022-09-21T14:42:16;4.20;;;1.20;;
74532;SDS011;63012;51.096;-115.366;2022-09-21T15:37:05;5.80;;;1.20;;
74532;SDS011;63012;51.096;-115.366;2022-09-21T15:45:00;4.40;;;1.10;;
74532;SDS011;63012;51.096;-115.366;2022-09-21T17:06:08;4.90;;;1.50;;
74532;SDS011;63012;51.096;-115.366;2022-09-21T17:54:56;4.70;;;1.20;;
74532;SDS011;63012;51.096;-115.366;2022-09-21T18:57:10;4.40;;;1.40;;
74532;SDS011;63012;51.096;-115.366;2022-09-21T20:03:04;6.40;;;1.30;;
74532;SDS011;63012;51.096;-115.366;2022-09-21T20:10:50;5.60;;;1.40;;
74532;SDS011;63012;51.096;-115.366;2022-09-21T20:45:31;7.70;;;1.00;;
74532;SDS011;63012;51.096;-115.366;2022-09-21T20:55:56;3.70;;;0.90;;
74532;SDS011;63012;51.096;-115.366;2022-09-21T21:02:36;6.00;;;1.10;;
74532;SDS011;63012;51.096;-115.366;2022-09-21T21:08:57;3.70;;;1.20;;
74532;SDS011;63012;51.096;-115.366;2022-09-21T21:23:01;4.10;;;1.10;;
74532;SDS011;63012;51.096;-115.366;2022-09-21T21:51:40;4.30;;;0.90;;
74532;SDS011;63012;51.096;-115.366;2022-09-21T21:55:08;3.50;;;0.80;;
74532;SDS011;63012;51.096;-115.366;2022-09-21T21:58:28;3.80;;;1.00;;
74532;SDS011;63012;51.096;-115.366;2022-09-21T22:27:31;3.10;;;0.70;;
74532;SDS011;63012;51.096;-115.366;2022-09-21T22:37:56;4.20;;;1.60;;
74532;SDS011;63012;51.096;-115.366;2022-09-21T23:10:29;2.90;;;0.70;;
